sensor_id;sensor_type;location;lat;lon;timestamp;pressure;altitude;pressure_sealevel;temperature;humidity
29549;BME280;16487;53.094;8.800;2023-03-03T00:01:25;102407.09;;;2.24;100.00
29549;BME280;16487;53.094;8.800;2023-03-03T00:03:53;102416.59;;;2.26;100.00
29549;BME280;16487;53.094;8.800;2023-03-03T00:06:22;102434.72;;;2.27;100.00
29549;BME280;16487;53.094;8.800;2023-03-03T00:08:50;102424.19;;;2.17;100.00
29549;BME280;16487;53.094;8.800;2023-03-03T00:11:17;102428.41;;;2.15;100.00
29549;BME280;16487;53.094;8.800;2023-03-03T00:13:47;102419.13;;;2.31;100.00
29549;BME280;16487;53.094;8.800;2023-03-03T00:16:20;102416.59;;;2.26;100.00
29549;BME280;16487;53.094;8.800;2023-03-03T00:18:49;102428.63;;;2.22;100.00
29549;BME280;16487;53.094;8.800;2023-03-03T00:21:26;102422.56;;;2.16;100.00
29549;BME280;16487;53.094;8.800;2023-03-03T00:24:01;102432.19;;;2.22;100.00
29549;BME280;16487;53.094;8.800;2023-03-03T00:26:36;102442.97;;;2.15;100.00
29549;BME280;16487;53.094;8.800;2023-03-03T00:29:23;102446.75;;;2.11;100.00
29549;BME280;16487;53.094;8.800;2023-03-03T00:31:53;102454.19;;;2.22;100.00
29549;BME280;16487;53.094;8.800;2023-03-03T00:34:24;102459.47;;;2.15;100.00
29549;BME280;16487;53.094;8.800;2023-03-03T00:36:54;102477.00;;;2.23;100.00
29549;BME280;16487;53.094;8.800;2023-03-03T00:39:28;102478.03;;;2.30;100.00
29549;BME280;16487;53.094;8.800;2023-03-03T00:41:57;102484.56;;;2.14;100.00
29549;BME280;16487;53.094;8.800;2023-03-03T00:44:40;102493.41;;;2.07;100.00
29549;BME280;16487;53.094;8.800;2023-03-03T00:47:29;102497.72;;;2.08;100.00
29549;BME280;16487;53.094;8.800;2023-03-03T00:50:27;102499.47;;;2.13;100.00
29549;BME280;16487;53.094;8.800;2023-03-03T00:53:04;102515.28;;;2.04;100.00
29549;BME280;16487;53.094;8.800;2023-03-03T00:55:33;102513.31;;;2.04;100.00
29549;BME280;16487;53.094;8.800;2023-03-03T00:58:02;102530.72;;;1.96;100.00
29549;BME280;16487;53.094;8.800;2023-03-03T01:00:35;102543.91;;;2.15;100.00
29549;BME280;16487;53.094;8.800;2023-03-03T01:03:06;102540.81;;;2.04;100.00
29549;BME280;16487;53.094;8.800;2023-03-03T01:05:34;102555.00;;;1.94;100.00
29549;BME280;16487;53.094;8.800;2023-03-03T01:08:05;102563.25;;;2.06;100.00
29549;BME280;16487;53.094;8.800;2023-03-03T01:10:35;102564.66;;;2.12;100.00
29549;BME280;16487;53.094;8.800;2023-03-03T01:13:04;102566.69;;;2.03;100.00
29549;BME280;16487;53.094;8.800;2023-03-03T01:15:32;102571.31;;;2.23;100.00
29549;BME280;16487;53.094;8.800;2023-03-03T01:18:00;102571.28;;;2.11;100.00
29549;BME280;16487;53.094;8.800;2023-03-03T01:20:28;102568.78;;;2.18;100.00
29549;BME280;16487;53.094;8.800;2023-03-03T01:22:57;102567.41;;;2.12;100.00
29549;BME280;16487;53.094;8.800;2023-03-03T01:25:26;102572.44;;;2.10;100.00
29549;BME280;16487;53.094;8.800;2023-03-03T01:27:57;102580.59;;;2.19;100.00
29549;BME280;16487;53.094;8.800;2023-03-03T01:30:25;102590.13;;;2.21;100.00
29549;BME280;16487;53.094;8.800;2023-03-03T01:32:53;102584.88;;;2.28;100.00
29549;BME280;16487;53.094;8.800;2023-03-03T01:35:21;102586.13;;;2.31;100.00
29549;BME280;16487;53.094;8.800;2023-03-03T01:37:48;102586.34;;;2.26;100.00
29549;BME280;16487;53.094;8.800;2023-03-03T01:40:18;102591.38;;;2.24;100.00
29549;BME280;16487;53.094;8.800;2023-03-03T01:42:47;102591.72;;;2.22;100.00
29549;BME280;16487;53.094;8.800;2023-03-03T01:45:18;102589.69;;;2.31;100.00
29549;BME280;16487;53.094;8.800;2023-03-03T01:47:51;102582.56;;;2.30;100.00
29549;BME280;16487;53.094;8.800;2023-03-03T01:53:13;102572.81;;;2.21;100.00
29549;BME280;16487;53.094;8.800;2023-03-03T01:55:43;102573.94;;;2.20;100.00
29549;BME280;16487;53.094;8.800;2023-03-03T01:58:15;102566.50;;;2.20;100.00
29549;BME280;16487;53.094;8.800;2023-03-03T02:00:47;102570.59;;;2.02;100.00
29549;BME280;16487;53.094;8.800;2023-03-03T02:03:17;102564.06;;;1.95;100.00
29549;BME280;16487;53.094;8.800;2023-03-03T02:05:47;102576.34;;;2.09;100.00
29549;BME280;16487;53.094;8.800;2023-03-03T02:08:20;102594.78;;;2.09;100.00
29549;BME280;16487;53.094;8.800;2023-03-03T02:10:50;102587.78;;;1.99;100.00
29549;BME280;16487;53.094;8.800;2023-03-03T02:13:20;102593.13;;;1.96;100.00
29549;BME280;16487;53.094;8.800;2023-03-03T02:15:47;102604.50;;;2.06;100.00
29549;BME280;16487;53.094;8.800;2023-03-03T02:18:18;102602.22;;;2.08;100.00
29549;BME280;16487;53.094;8.800;2023-03-03T02:20:53;102608.22;;;2.22;100.00
29549;BME280;16487;53.094;8.800;2023-03-03T02:23:27;102613.94;;;2.17;100.00
29549;BME280;16487;53.094;8.800;2023-03-03T02:26:08;102601.53;;;2.11;100.00
29549;BME280;16487;53.094;8.800;2023-03-03T02:28:40;102610.69;;;2.03;100.00
29549;BME280;16487;53.094;8.800;2023-03-03T02:31:11;102613.25;;;2.20;100.00
29549;BME280;16487;53.094;8.800;2023-03-03T02:33:45;102592.66;;;2.26;100.00
29549;BME280;16487;53.094;8.800;2023-03-03T02:36:15;102600.88;;;2.14;100.00
29549;BME280;16487;53.094;8.800;2023-03-03T02:38:54;102602.47;;;2.15;100.00
29549;BME280;16487;53.094;8.800;2023-03-03T02:41:32;102600.63;;;2.07;100.00
29549;BME280;16487;53.094;8.800;2023-03-03T02:44:04;102601.97;;;2.01;100.00
29549;BME280;16487;53.094;8.800;2023-03-03T02:46:34;102604.63;;;2.10;100.00
29549;BME280;16487;53.094;8.800;2023-03-03T02:49:03;102608.28;;;2.02;100.00
29549;BME280;16487;53.094;8.800;2023-03-03T02:51:33;102599.94;;;2.10;100.00
29549;BME280;16487;53.094;8.800;2023-03-03T02:54:04;102597.63;;;2.00;100.00
29549;BME280;16487;53.094;8.800;2023-03-03T02:56:38;102585.25;;;1.94;100.00
29549;BME280;16487;53.094;8.800;2023-03-03T02:59:06;102586.84;;;1.95;100.00
29549;BME280;16487;53.094;8.800;2023-03-03T03:01:39;102592.34;;;1.95;100.00
29549;BME280;16487;53.094;8.800;2023-03-03T03:04:14;102596.00;;;1.99;100.00
29549;BME280;16487;53.094;8.800;2023-03-03T03:06:47;102600.38;;;2.00;100.00
29549;BME280;16487;53.094;8.800;2023-03-03T03:09:17;102608.41;;;2.05;100.00
29549;BME280;16487;53.094;8.800;2023-03-03T03:11:48;102600.19;;;2.17;100.00
29549;BME280;16487;53.094;8.800;2023-03-03T03:14:20;102595.38;;;2.14;100.00
29549;BME280;16487;53.094;8.800;2023-03-03T03:16:50;102586.53;;;2.09;100.00
29549;BME280;16487;53.094;8.800;2023-03-03T03:19:20;102594.19;;;2.03;100.00
29549;BME280;16487;53.094;8.800;2023-03-03T03:21:47;102603.41;;;2.19;100.00
29549;BME280;16487;53.094;8.800;2023-03-03T03:24:20;102603.31;;;2.28;100.00
29549;BME280;16487;53.094;8.800;2023-03-03T03:26:59;102602.84;;;2.26;100.00
29549;BME280;16487;53.094;8.800;2023-03-03T03:29:27;102598.41;;;2.33;100.00
29549;BME280;16487;53.094;8.800;2023-03-03T03:31:55;102604.81;;;2.38;100.00
29549;BME280;16487;53.094;8.800;2023-03-03T03:34:26;102600.44;;;2.24;100.00
29549;BME280;16487;53.094;8.800;2023-03-03T03:36:54;102608.81;;;2.28;100.00
29549;BME280;16487;53.094;8.800;2023-03-03T03:39:23;102612.38;;;2.28;100.00
29549;BME280;16487;53.094;8.800;2023-03-03T03:41:52;102606.63;;;2.21;100.00
29549;BME280;16487;53.094;8.800;2023-03-03T03:44:21;102607.53;;;2.25;100.00
29549;BME280;16487;53.094;8.800;2023-03-03T03:46:49;102615.13;;;2.28;100.00
29549;BME280;16487;53.094;8.800;2023-03-03T03:49:17;102611.19;;;2.17;100.00
29549;BME280;16487;53.094;8.800;2023-03-03T03:51:47;102618.28;;;2.18;100.00
29549;BME280;16487;53.094;8.800;2023-03-03T03:54:18;102621.00;;;2.06;100.00
29549;BME280;16487;53.094;8.800;2023-03-03T03:56:45;102630.66;;;2.12;100.00
29549;BME280;16487;53.094;8.800;2023-03-03T03:59:13;102630.31;;;2.14;100.00
29549;BME280;16487;53.094;8.800;2023-03-03T04:01:42;102643.50;;;2.20;100.00
29549;BME280;16487;53.094;8.800;2023-03-03T04:04:09;102634.38;;;2.28;100.00
29549;BME280;16487;53.094;8.800;2023-03-03T04:06:36;102637.31;;;2.23;100.00
29549;BME280;16487;53.094;8.800;2023-03-03T04:09:05;102642.56;;;2.16;100.00
29549;BME280;16487;53.094;8.800;2023-03-03T04:11:33;102643.25;;;2.13;100.00
29549;BME280;16487;53.094;8.800;2023-03-03T04:14:02;102637.19;;;2.20;100.00
29549;BME280;16487;53.094;8.800;2023-03-03T04:16:29;102644.19;;;2.17;100.00
29549;BME280;16487;53.094;8.800;2023-03-03T04:18:58;102636.53;;;2.23;100.00
29549;BME280;16487;53.094;8.800;2023-03-03T04:21:26;102635.72;;;2.22;100.00
29549;BME280;16487;53.094;8.800;2023-03-03T04:23:56;102636.91;;;2.33;100.00
29549;BME280;16487;53.094;8.800;2023-03-03T04:26:25;102625.34;;;2.40;100.00
29549;BME280;16487;53.094;8.800;2023-03-03T04:28:53;102627.13;;;2.24;100.00
29549;BME280;16487;53.094;8.800;2023-03-03T04:31:21;102620.28;;;2.30;100.00
29549;BME280;16487;53.094;8.800;2023-03-03T04:33:49;102628.41;;;2.26;100.00
29549;BME280;16487;53.094;8.800;2023-03-03T04:36:18;102629.00;;;2.32;100.00
29549;BME280;16487;53.094;8.800;2023-03-03T04:38:45;102620.28;;;2.30;100.00
29549;BME280;16487;53.094;8.800;2023-03-03T04:41:12;102625.44;;;2.31;100.00
29549;BME280;16487;53.094;8.800;2023-03-03T04:43:40;102610.31;;;2.38;100.00
29549;BME280;16487;53.094;8.800;2023-03-03T04:46:10;102605.28;;;2.40;100.00
29549;BME280;16487;53.094;8.800;2023-03-03T04:48:38;102600.69;;;2.31;100.00
29549;BME280;16487;53.094;8.800;2023-03-03T04:51:05;102606.41;;;2.26;100.00
29549;BME280;16487;53.094;8.800;2023-03-03T04:53:35;102603.19;;;2.24;100.00
29549;BME280;16487;53.094;8.800;2023-03-03T04:56:04;102597.34;;;2.26;100.00
29549;BME280;16487;53.094;8.800;2023-03-03T04:58:31;102606.91;;;2.41;100.00
29549;BME280;16487;53.094;8.800;2023-03-03T05:00:59;102595.88;;;2.41;100.00
29549;BME280;16487;53.094;8.800;2023-03-03T05:03:28;102595.66;;;2.33;100.00
29549;BME280;16487;53.094;8.800;2023-03-03T05:05:55;102600.13;;;2.38;100.00
29549;BME280;16487;53.094;8.800;2023-03-03T05:08:23;102587.19;;;2.51;100.00
29549;BME280;16487;53.094;8.800;2023-03-03T05:10:52;102588.97;;;2.34;100.00
29549;BME280;16487;53.094;8.800;2023-03-03T05:13:20;102584.41;;;2.39;100.00
29549;BME280;16487;53.094;8.800;2023-03-03T05:15:49;102585.53;;;2.38;100.00
29549;BME280;16487;53.094;8.800;2023-03-03T05:18:18;102576.50;;;2.49;100.00
29549;BME280;16487;53.094;8.800;2023-03-03T05:20:47;102577.75;;;2.52;100.00
29549;BME280;16487;53.094;8.800;2023-03-03T05:23:14;102574.31;;;2.43;100.00
29549;BME280;16487;53.094;8.800;2023-03-03T05:25:47;102578.69;;;2.44;100.00
29549;BME280;16487;53.094;8.800;2023-03-03T05:28:16;102580.75;;;2.47;100.00
29549;BME280;16487;53.094;8.800;2023-03-03T05:30:49;102589.22;;;2.42;100.00
29549;BME280;16487;53.094;8.800;2023-03-03T05:33:17;102594.03;;;2.45;100.00
29549;BME280;16487;53.094;8.800;2023-03-03T05:35:44;102595.66;;;2.46;100.00
29549;BME280;16487;53.094;8.800;2023-03-03T05:38:12;102601.72;;;2.51;100.00
29549;BME280;16487;53.094;8.800;2023-03-03T05:40:39;102617.31;;;2.47;100.00
29549;BME280;16487;53.094;8.800;2023-03-03T05:43:06;102625.34;;;2.40;100.00
29549;BME280;16487;53.094;8.800;2023-03-03T05:45:35;102632.44;;;2.41;100.00
29549;BME280;16487;53.094;8.800;2023-03-03T05:48:03;102642.09;;;2.47;100.00
29549;BME280;16487;53.094;8.800;2023-03-03T05:50:31;102660.19;;;2.48;100.00
29549;BME280;16487;53.094;8.800;2023-03-03T05:52:59;102656.66;;;2.48;100.00
29549;BME280;16487;53.094;8.800;2023-03-03T05:55:26;102673.59;;;2.50;100.00
29549;BME280;16487;53.094;8.800;2023-03-03T05:57:54;102689.47;;;2.65;100.00
29549;BME280;16487;53.094;8.800;2023-03-03T06:00:22;102693.72;;;2.62;100.00
29549;BME280;16487;53.094;8.800;2023-03-03T06:02:50;102699.34;;;2.66;100.00
29549;BME280;16487;53.094;8.800;2023-03-03T06:05:18;102695.41;;;2.67;100.00
29549;BME280;16487;53.094;8.800;2023-03-03T06:07:45;102715.34;;;2.52;100.00
29549;BME280;16487;53.094;8.800;2023-03-03T06:10:12;102726.75;;;2.62;100.00
29549;BME280;16487;53.094;8.800;2023-03-03T06:12:41;102741.78;;;2.65;100.00
29549;BME280;16487;53.094;8.800;2023-03-03T06:15:09;102745.41;;;2.57;100.00
29549;BME280;16487;53.094;8.800;2023-03-03T06:17:37;102765.38;;;2.54;100.00
29549;BME280;16487;53.094;8.800;2023-03-03T06:20:07;102782.00;;;2.57;100.00
29549;BME280;16487;53.094;8.800;2023-03-03T06:22:34;102787.50;;;2.57;100.00
29549;BME280;16487;53.094;8.800;2023-03-03T06:25:02;102801.66;;;2.68;100.00
29549;BME280;16487;53.094;8.800;2023-03-03T06:27:29;102811.94;;;2.59;100.00
29549;BME280;16487;53.094;8.800;2023-03-03T06:29:57;102825.66;;;2.79;100.00
29549;BME280;16487;53.094;8.800;2023-03-03T06:32:24;102834.00;;;2.71;100.00
29549;BME280;16487;53.094;8.800;2023-03-03T06:34:51;102847.09;;;2.74;100.00
29549;BME280;16487;53.094;8.800;2023-03-03T06:37:20;102856.50;;;2.73;100.00
29549;BME280;16487;53.094;8.800;2023-03-03T06:39:48;102863.06;;;2.80;100.00
29549;BME280;16487;53.094;8.800;2023-03-03T06:42:15;102871.34;;;2.80;100.00
29549;BME280;16487;53.094;8.800;2023-03-03T06:44:42;102871.88;;;2.74;100.00
29549;BME280;16487;53.094;8.800;2023-03-03T06:47:09;102871.59;;;2.67;100.00
29549;BME280;16487;53.094;8.800;2023-03-03T06:49:37;102882.59;;;2.67;100.00
29549;BME280;16487;53.094;8.800;2023-03-03T06:52:11;102895.25;;;2.68;100.00
29549;BME280;16487;53.094;8.800;2023-03-03T06:54:40;102907.88;;;2.69;100.00
29549;BME280;16487;53.094;8.800;2023-03-03T06:57:21;102908.38;;;2.83;100.00
29549;BME280;16487;53.094;8.800;2023-03-03T06:59:51;102901.28;;;2.82;100.00
29549;BME280;16487;53.094;8.800;2023-03-03T07:02:20;102924.09;;;2.82;100.00
29549;BME280;16487;53.094;8.800;2023-03-03T07:04:48;102939.88;;;2.94;100.00
29549;BME280;16487;53.094;8.800;2023-03-03T07:07:17;102962.19;;;3.01;100.00
29549;BME280;16487;53.094;8.800;2023-03-03T07:09:48;102950.69;;;2.99;100.00
29549;BME280;16487;53.094;8.800;2023-03-03T07:12:18;102944.84;;;3.00;100.00
29549;BME280;16487;53.094;8.800;2023-03-03T07:14:47;102939.69;;;2.99;100.00
29549;BME280;16487;53.094;8.800;2023-03-03T07:17:18;102932.00;;;3.04;100.00
29549;BME280;16487;53.094;8.800;2023-03-03T07:19:46;102925.34;;;3.05;100.00
29549;BME280;16487;53.094;8.800;2023-03-03T07:22:17;102919.03;;;3.05;100.00
29549;BME280;16487;53.094;8.800;2023-03-03T07:24:49;102907.34;;;3.08;100.00
29549;BME280;16487;53.094;8.800;2023-03-03T07:27:23;102887.63;;;3.18;100.00
29549;BME280;16487;53.094;8.800;2023-03-03T07:29:53;102866.03;;;3.08;100.00
29549;BME280;16487;53.094;8.800;2023-03-03T07:32:26;102849.50;;;3.08;100.00
29549;BME280;16487;53.094;8.800;2023-03-03T07:34:55;102825.50;;;3.20;100.00
29549;BME280;16487;53.094;8.800;2023-03-03T07:37:29;102801.88;;;3.31;100.00
29549;BME280;16487;53.094;8.800;2023-03-03T07:40:00;102781.13;;;3.34;100.00
29549;BME280;16487;53.094;8.800;2023-03-03T07:42:37;102753.09;;;3.44;100.00
29549;BME280;16487;53.094;8.800;2023-03-03T07:45:26;102721.72;;;3.48;100.00
29549;BME280;16487;53.094;8.800;2023-03-03T07:48:00;102697.16;;;3.43;100.00
29549;BME280;16487;53.094;8.800;2023-03-03T07:50:28;102677.75;;;3.80;100.00
29549;BME280;16487;53.094;8.800;2023-03-03T07:52:58;102658.41;;;3.92;100.00
29549;BME280;16487;53.094;8.800;2023-03-03T07:55:31;102623.41;;;4.08;100.00
29549;BME280;16487;53.094;8.800;2023-03-03T07:58:16;102596.53;;;4.05;100.00
29549;BME280;16487;53.094;8.800;2023-03-03T08:03:53;102554.44;;;4.23;100.00
29549;BME280;16487;53.094;8.800;2023-03-03T08:06:41;102528.69;;;4.35;100.00
29549;BME280;16487;53.094;8.800;2023-03-03T08:09:43;102491.38;;;4.56;100.00
29549;BME280;16487;53.094;8.800;2023-03-03T08:12:39;102461.06;;;4.60;100.00
29549;BME280;16487;53.094;8.800;2023-03-03T08:15:25;102427.56;;;4.61;100.00
29549;BME280;16487;53.094;8.800;2023-03-03T08:17:54;102420.56;;;4.48;100.00
29549;BME280;16487;53.094;8.800;2023-03-03T08:20:49;102389.22;;;4.76;100.00
29549;BME280;16487;53.094;8.800;2023-03-03T08:23:18;102382.00;;;4.90;100.00
29549;BME280;16487;53.094;8.800;2023-03-03T08:25:47;102353.81;;;4.81;100.00
29549;BME280;16487;53.094;8.800;2023-03-03T08:28:16;102334.13;;;4.44;100.00
29549;BME280;16487;53.094;8.800;2023-03-03T08:30:44;102317.56;;;4.63;100.00
29549;BME280;16487;53.094;8.800;2023-03-03T08:33:12;102296.09;;;4.95;100.00
29549;BME280;16487;53.094;8.800;2023-03-03T08:35:40;102264.50;;;5.19;100.00
29549;BME280;16487;53.094;8.800;2023-03-03T08:38:08;102247.69;;;5.05;100.00
29549;BME280;16487;53.094;8.800;2023-03-03T08:40:37;102216.06;;;5.02;100.00
29549;BME280;16487;53.094;8.800;2023-03-03T08:43:05;102202.31;;;5.06;100.00
29549;BME280;16487;53.094;8.800;2023-03-03T08:45:34;102177.94;;;4.89;100.00
29549;BME280;16487;53.094;8.800;2023-03-03T08:48:02;102156.38;;;4.72;100.00
29549;BME280;16487;53.094;8.800;2023-03-03T08:50:32;102155.09;;;4.43;100.00
29549;BME280;16487;53.094;8.800;2023-03-03T08:52:59;102157.66;;;4.55;100.00
29549;BME280;16487;53.094;8.800;2023-03-03T08:55:26;102148.00;;;4.45;100.00
29549;BME280;16487;53.094;8.800;2023-03-03T08:57:54;102145.03;;;5.03;100.00
29549;BME280;16487;53.094;8.800;2023-03-03T09:00:22;102133.13;;;5.25;100.00
29549;BME280;16487;53.094;8.800;2023-03-03T09:02:51;102111.00;;;5.25;100.00
29549;BME280;16487;53.094;8.800;2023-03-03T09:05:20;102084.25;;;5.62;100.00
29549;BME280;16487;53.094;8.800;2023-03-03T09:07:49;102065.22;;;5.24;100.00
29549;BME280;16487;53.094;8.800;2023-03-03T09:10:18;102049.91;;;5.96;100.00
29549;BME280;16487;53.094;8.800;2023-03-03T09:12:47;102012.88;;;6.08;100.00
29549;BME280;16487;53.094;8.800;2023-03-03T09:15:25;101982.78;;;6.06;100.00
29549;BME280;16487;53.094;8.800;2023-03-03T09:17:57;101954.09;;;6.93;100.00
29549;BME280;16487;53.094;8.800;2023-03-03T09:20:35;101908.00;;;5.99;100.00
29549;BME280;16487;53.094;8.800;2023-03-03T09:23:28;101901.75;;;6.70;100.00
29549;BME280;16487;53.094;8.800;2023-03-03T09:25:57;101868.34;;;6.35;100.00
29549;BME280;16487;53.094;8.800;2023-03-03T09:28:26;101853.69;;;6.31;100.00
29549;BME280;16487;53.094;8.800;2023-03-03T09:30:57;101843.00;;;6.33;100.00
29549;BME280;16487;53.094;8.800;2023-03-03T09:33:28;101823.16;;;6.21;100.00
29549;BME280;16487;53.094;8.800;2023-03-03T09:36:01;101819.22;;;6.25;100.00
29549;BME280;16487;53.094;8.800;2023-03-03T09:38:30;101827.34;;;6.72;100.00
29549;BME280;16487;53.094;8.800;2023-03-03T09:41:21;101798.91;;;6.89;100.00
29549;BME280;16487;53.094;8.800;2023-03-03T09:44:05;101785.47;;;6.95;100.00
29549;BME280;16487;53.094;8.800;2023-03-03T09:46:40;101750.50;;;6.45;100.00
29549;BME280;16487;53.094;8.800;2023-03-03T09:49:21;101758.56;;;7.03;100.00
29549;BME280;16487;53.094;8.800;2023-03-03T09:52:11;101739.94;;;7.28;100.00
29549;BME280;16487;53.094;8.800;2023-03-03T09:55:02;101714.19;;;7.45;100.00
29549;BME280;16487;53.094;8.800;2023-03-03T09:57:46;101690.84;;;7.35;100.00
29549;BME280;16487;53.094;8.800;2023-03-03T10:00:41;101675.81;;;7.12;100.00
29549;BME280;16487;53.094;8.800;2023-03-03T10:03:35;101693.56;;;6.68;100.00
29549;BME280;16487;53.094;8.800;2023-03-03T10:06:10;101712.22;;;6.99;100.00
29549;BME280;16487;53.094;8.800;2023-03-03T10:08:55;101690.44;;;7.16;100.00
29549;BME280;16487;53.094;8.800;2023-03-03T10:11:29;101675.00;;;7.11;100.00
29549;BME280;16487;53.094;8.800;2023-03-03T10:14:17;101666.69;;;6.97;100.00
29549;BME280;16487;53.094;8.800;2023-03-03T10:17:01;101664.31;;;7.03;100.00
29549;BME280;16487;53.094;8.800;2023-03-03T10:19:47;101658.19;;;7.85;100.00
29549;BME280;16487;53.094;8.800;2023-03-03T10:22:23;101625.19;;;8.08;100.00
29549;BME280;16487;53.094;8.800;2023-03-03T10:25:02;101579.13;;;8.14;100.00
29549;BME280;16487;53.094;8.800;2023-03-03T10:27:48;101566.69;;;7.71;100.00
29549;BME280;16487;53.094;8.800;2023-03-03T10:30:27;101568.28;;;7.75;100.00
29549;BME280;16487;53.094;8.800;2023-03-03T10:33:14;101592.38;;;7.92;100.00
29549;BME280;16487;53.094;8.800;2023-03-03T10:35:58;101583.13;;;8.13;100.00
29549;BME280;16487;53.094;8.800;2023-03-03T10:38:45;101557.47;;;8.53;100.00
29549;BME280;16487;53.094;8.800;2023-03-03T10:41:36;101513.66;;;8.68;100.00
29549;BME280;16487;53.094;8.800;2023-03-03T10:44:21;101483.31;;;7.92;100.00
29549;BME280;16487;53.094;8.800;2023-03-03T10:46:58;101475.69;;;8.06;100.00
29549;BME280;16487;53.094;8.800;2023-03-03T10:49:41;101492.03;;;7.94;100.00
29549;BME280;16487;53.094;8.800;2023-03-03T10:52:32;101495.28;;;7.82;100.00
29549;BME280;16487;53.094;8.800;2023-03-03T10:55:20;101500.69;;;8.06;100.00
29549;BME280;16487;53.094;8.800;2023-03-03T10:58:04;101486.81;;;8.03;100.00
29549;BME280;16487;53.094;8.800;2023-03-03T11:00:38;101492.81;;;7.98;100.00
29549;BME280;16487;53.094;8.800;2023-03-03T11:06:12;101478.53;;;7.96;100.00
29549;BME280;16487;53.094;8.800;2023-03-03T11:08:46;101480.22;;;7.83;100.00
29549;BME280;16487;53.094;8.800;2023-03-03T11:11:20;101492.66;;;7.54;100.00
29549;BME280;16487;53.094;8.800;2023-03-03T11:13:55;101507.84;;;7.32;100.00
29549;BME280;16487;53.094;8.800;2023-03-03T11:16:49;101514.53;;;7.38;100.00
29549;BME280;16487;53.094;8.800;2023-03-03T11:19:33;101494.91;;;7.76;100.00
29549;BME280;16487;53.094;8.800;2023-03-03T11:22:13;101476.63;;;7.86;100.00
29549;BME280;16487;53.094;8.800;2023-03-03T11:24:53;101457.19;;;7.89;100.00
29549;BME280;16487;53.094;8.800;2023-03-03T11:27:52;101473.13;;;7.78;100.00
29549;BME280;16487;53.094;8.800;2023-03-03T11:33:20;101471.66;;;7.60;100.00
29549;BME280;16487;53.094;8.800;2023-03-03T11:35:53;101470.41;;;8.19;100.00
29549;BME280;16487;53.094;8.800;2023-03-03T11:38:50;101356.41;;;10.69;100.00
29549;BME280;16487;53.094;8.800;2023-03-03T11:41:29;101344.25;;;11.50;100.00
29549;BME280;16487;53.094;8.800;2023-03-03T11:44:05;101361.34;;;10.62;100.00
29549;BME280;16487;53.094;8.800;2023-03-03T11:46:40;101350.00;;;9.87;100.00
29549;BME280;16487;53.094;8.800;2023-03-03T11:49:13;101341.72;;;10.49;100.00
29549;BME280;16487;53.094;8.800;2023-03-03T11:51:49;101383.09;;;10.90;100.00
29549;BME280;16487;53.094;8.800;2023-03-03T11:54:22;101367.06;;;10.35;100.00
29549;BME280;16487;53.094;8.800;2023-03-03T11:56:54;101359.03;;;9.91;100.00
29549;BME280;16487;53.094;8.800;2023-03-03T11:59:40;101345.28;;;10.69;100.00
29549;BME280;16487;53.094;8.800;2023-03-03T12:02:27;101371.66;;;10.65;100.00
29549;BME280;16487;53.094;8.800;2023-03-03T12:04:59;101365.91;;;9.60;100.00
29549;BME280;16487;53.094;8.800;2023-03-03T12:07:38;101345.69;;;9.02;100.00
29549;BME280;16487;53.094;8.800;2023-03-03T12:10:15;101324.41;;;8.92;100.00
29549;BME280;16487;53.094;8.800;2023-03-03T12:12:49;101325.69;;;8.17;100.00
29549;BME280;16487;53.094;8.800;2023-03-03T12:15:28;101329.44;;;7.96;100.00
29549;BME280;16487;53.094;8.800;2023-03-03T12:18:22;101350.66;;;7.73;100.00
29549;BME280;16487;53.094;8.800;2023-03-03T12:21:01;101355.72;;;7.85;100.00
29549;BME280;16487;53.094;8.800;2023-03-03T12:23:45;101354.75;;;7.61;100.00
29549;BME280;16487;53.094;8.800;2023-03-03T12:26:35;101353.13;;;7.64;100.00
29549;BME280;16487;53.094;8.800;2023-03-03T12:29:24;101359.88;;;7.63;100.00
29549;BME280;16487;53.094;8.800;2023-03-03T12:31:58;101346.69;;;7.77;100.00
29549;BME280;16487;53.094;8.800;2023-03-03T12:34:39;101339.50;;;7.80;100.00
29549;BME280;16487;53.094;8.800;2023-03-03T12:37:17;101333.63;;;7.71;100.00
29549;BME280;16487;53.094;8.800;2023-03-03T12:39:58;101336.06;;;7.65;100.00
29549;BME280;16487;53.094;8.800;2023-03-03T12:42:39;101327.34;;;7.67;100.00
29549;BME280;16487;53.094;8.800;2023-03-03T12:45:21;101323.25;;;7.82;100.00
29549;BME280;16487;53.094;8.800;2023-03-03T12:47:57;101332.81;;;7.77;100.00
29549;BME280;16487;53.094;8.800;2023-03-03T12:50:34;101322.41;;;7.85;100.00
29549;BME280;16487;53.094;8.800;2023-03-03T12:53:12;101326.28;;;7.98;100.00
29549;BME280;16487;53.094;8.800;2023-03-03T12:55:49;101307.56;;;8.02;100.00
29549;BME280;16487;53.094;8.800;2023-03-03T12:58:27;101304.81;;;8.02;100.00
29549;BME280;16487;53.094;8.800;2023-03-03T13:01:05;101285.78;;;8.00;100.00
29549;BME280;16487;53.094;8.800;2023-03-03T13:03:43;101285.97;;;8.20;100.00
29549;BME280;16487;53.094;8.800;2023-03-03T13:06:26;101286.31;;;8.29;100.00
29549;BME280;16487;53.094;8.800;2023-03-03T13:09:01;101294.66;;;7.85;100.00
29549;BME280;16487;53.094;8.800;2023-03-03T13:11:41;101291.91;;;7.85;100.00
29549;BME280;16487;53.094;8.800;2023-03-03T13:14:20;101295.25;;;7.66;100.00
29549;BME280;16487;53.094;8.800;2023-03-03T13:17:00;101291.00;;;7.54;100.00
29549;BME280;16487;53.094;8.800;2023-03-03T13:19:32;101292.38;;;7.76;100.00
29549;BME280;16487;53.094;8.800;2023-03-03T13:22:07;101286.41;;;7.78;100.00
29549;BME280;16487;53.094;8.800;2023-03-03T13:24:44;101283.81;;;8.01;100.00
29549;BME280;16487;53.094;8.800;2023-03-03T13:27:19;101277.72;;;8.13;100.00
29549;BME280;16487;53.094;8.800;2023-03-03T13:29:55;101279.25;;;8.18;100.00
29549;BME280;16487;53.094;8.800;2023-03-03T13:32:32;101280.34;;;7.90;100.00
29549;BME280;16487;53.094;8.800;2023-03-03T13:35:06;101266.56;;;7.79;100.00